Time;durP1;ratioP1;P1;durP2;ratioP2;P2;SDS_P1;SDS_P2;PMS_P1;PMS_P2;Temp;Humidity;BMP_temperature;BMP_pressure;BME280_temperature;BME280_humidity;BME280_pressure;Samples;Min_cycle;Max_cycle;Signal;HPM_P1;HPM_P2
2023/01/06 16:48:09;;;;;;;14.63;7.13;;;;;;;;;;9086060;27;10000941;-88
2023/01/06 16:53:12;;;;;;;13.18;5.32;;;;;;;;;;10068775;28;20300;-90
2023/01/06 17:18:19;;;;;;;0.10;0.10;;;;;;;14.08;37.31;98346.81;10374612;28;20072;-56
2023/01/06 17:23:18;;;;;;;0.30;0.30;;;;;;;12.09;40.28;98359.19;10406662;28;20154;-56
2023/01/06 17:28:18;;;;;;;;;;;;;;;10.76;43.28;98367.09;10442282;28;20016;-58
2023/01/06 17:33:18;;;;;;;2.28;2.17;;;;;;;9.48;45.06;98336.38;10426960;28;19964;-57
2023/01/06 17:38:22;;;;;;;0.20;0.20;;;;;;;8.85;46.95;98380.31;10402361;28;20048;-56
2023/01/06 17:43:32;;;;;;;14.23;8.77;;;;;;;8.22;48.24;98388.72;10397845;28;20119;-57
2023/01/06 17:48:31;;;;;;;0.30;0.30;;;;;;;7.84;50.02;98409.53;10402390;28;20460;-57
2023/01/06 17:58:52;;;;;;;2.92;2.60;;;;;;;6.82;52.75;98411.56;10388731;28;20501;-55
2023/01/06 18:03:53;;;;;;;16.08;14.32;;;;;;;6.38;54.94;98414.75;10399812;28;20120;-56
2023/01/06 18:09:06;;;;;;;2.88;2.33;;;;;;;6.06;55.06;98370.06;10397438;28;20116;-55
2023/01/06 18:14:23;;;;;;;2.28;1.70;;;;;;;6.14;56.37;98404.66;10391319;28;20111;-56
2023/01/06 18:19:32;;;;;;;4.55;3.47;;;;;;;6.03;56.62;98411.22;10393464;28;20120;-56
2023/01/06 18:24:35;;;;;;;1.33;1.33;;;;;;;5.90;57.90;98397.13;10345894;28;20123;-58
2023/01/06 18:29:36;;;;;;;5.93;2.15;;;;;;;5.24;58.30;98296.56;10352170;28;20446;-57
2023/01/06 18:34:39;;;;;;;0.43;0.43;;;;;;;5.74;58.92;98401.00;10291107;28;20128;-57
2023/01/06 18:39:43;;;;;;;0.65;0.65;;;;;;;5.55;59.44;98397.03;10332456;28;20458;-58
2023/01/06 18:44:42;;;;;;;29.67;5.93;;;;;;;5.43;59.88;98412.06;10320734;28;20112;-57
2023/01/06 18:49:41;;;;;;;13.05;6.70;;;;;;;5.24;61.26;98425.22;10302128;28;20593;-57
2023/01/06 18:54:40;;;;;;;7.18;6.43;;;;;;;5.00;62.34;98407.34;10324821;28;20569;-56
2023/01/06 18:59:39;;;;;;;5.72;2.33;;;;;;;4.72;64.05;98427.84;10320141;28;20124;-58
2023/01/06 19:04:41;;;;;;;9.68;8.10;;;;;;;4.48;63.99;98415.06;10317515;28;20061;-58
2023/01/06 19:09:46;;;;;;;2.05;1.95;;;;;;;4.55;64.46;98430.66;10328311;28;20149;-58
2023/01/06 19:14:49;;;;;;;0.60;0.60;;;;;;;4.21;65.46;98424.41;10327093;28;20071;-58
2023/01/06 19:19:50;;;;;;;7.22;6.40;;;;;;;4.31;65.65;98457.28;10322466;28;20096;-58
2023/01/06 19:25:12;;;;;;;11.68;10.85;;;;;;;4.10;66.67;98454.81;10320009;28;20105;-59
2023/01/06 19:30:29;;;;;;;0.47;0.47;;;;;;;4.00;66.75;98451.06;10307026;28;20141;-60
2023/01/06 19:35:29;;;;;;;0.30;0.30;;;;;;;3.71;66.58;98401.25;10312840;28;20111;-58
2023/01/06 19:40:30;;;;;;;0.95;0.93;;;;;;;3.92;67.59;98451.63;10320143;28;20208;-56
2023/01/06 19:45:30;;;;;;;0.82;0.82;;;;;;;3.76;68.47;98455.31;10328387;28;20061;-56
2023/01/06 19:50:29;;;;;;;5.13;4.63;;;;;;;3.65;68.33;98436.94;10322203;28;20108;-57
2023/01/06 19:55:29;;;;;;;0.55;0.55;;;;;;;3.58;68.97;98419.56;10309499;28;20462;-57
2023/01/06 20:00:28;;;;;;;7.55;6.88;;;;;;;3.67;69.26;98450.69;10326509;28;20063;-57
2023/01/06 20:05:28;;;;;;;14.23;8.38;;;;;;;3.24;70.74;98418.28;10325334;28;20096;-57
2023/01/06 20:10:27;;;;;;;18.50;11.73;;;;;;;3.15;72.60;98441.03;10318947;28;20156;-57
2023/01/06 20:15:26;;;;;;;11.18;6.10;;;;;;;3.15;72.58;98458.97;10320273;28;20025;-57
2023/01/06 20:20:25;;;;;;;0.20;0.20;;;;;;;3.21;72.78;98470.34;10313992;28;20033;-57
2023/01/06 20:25:24;;;;;;;0.35;0.35;;;;;;;3.23;72.08;98472.97;10328233;28;20025;-57
2023/01/06 20:30:23;;;;;;;;;;;;;;;3.23;71.80;98468.69;10327638;28;20022;-57
2023/01/06 20:35:22;;;;;;;2.17;1.58;;;;;;;3.11;72.59;98464.78;10323803;28;19932;-58
2023/01/06 20:40:21;;;;;;;;;;;;;;;3.07;72.38;98474.03;10327386;28;20141;-58
2023/01/06 20:45:20;;;;;;;2.38;2.17;;;;;;;2.99;73.13;98478.84;10326918;28;19944;-58
2023/01/06 20:50:19;;;;;;;0.30;0.30;;;;;;;2.96;73.21;98486.44;10324764;28;20034;-58
2023/01/06 20:55:18;;;;;;;17.10;8.55;;;;;;;2.74;74.46;98491.47;10323565;28;20583;-57
2023/01/06 21:00:18;;;;;;;8.25;7.85;;;;;;;2.69;74.75;98487.84;10327901;28;20021;-57
2023/01/06 21:05:19;;;;;;;1.67;1.60;;;;;;;2.73;74.62;98487.19;10320498;28;20116;-58
2023/01/06 21:10:18;;;;;;;2.03;1.95;;;;;;;2.70;74.86;98482.81;10320315;28;20145;-57
2023/01/06 21:15:17;;;;;;;1.52;1.52;;;;;;;2.70;74.39;98492.16;10317326;28;20372;-57
2023/01/06 21:20:16;;;;;;;;;;;;;;;2.67;74.88;98492.03;10322928;28;20076;-57
2023/01/06 21:25:18;;;;;;;1.13;1.13;;;;;;;2.61;75.35;98490.09;10323545;28;19972;-58
2023/01/06 21:30:17;;;;;;;6.38;5.82;;;;;;;2.63;74.93;98497.84;10321991;28;20140;-57
2023/01/06 21:35:16;;;;;;;4.93;4.68;;;;;;;2.53;75.26;98502.56;10322099;28;20104;-58
2023/01/06 21:40:15;;;;;;;9.80;7.88;;;;;;;2.45;75.47;98503.94;10319985;28;20095;-57
2023/01/06 21:45:14;;;;;;;;;;;;;;;2.42;75.60;98497.78;10322006;28;20069;-57
2023/01/06 21:50:13;;;;;;;2.15;2.05;;;;;;;2.15;75.85;98457.41;10313834;28;19974;-57
2023/01/06 21:55:12;;;;;;;4.25;3.83;;;;;;;2.34;75.93;98490.66;10322865;28;20320;-57
2023/01/06 22:00:12;;;;;;;34.13;31.25;;;;;;;2.30;76.21;98493.94;10326863;28;20061;-57
2023/01/06 22:05:11;;;;;;;0.17;0.17;;;;;;;2.29;76.19;98488.72;10330139;28;20536;-56
2023/01/06 22:10:13;;;;;;;14.43;8.77;;;;;;;2.23;76.62;98501.25;10326933;28;20149;-56
2023/01/06 22:15:12;;;;;;;12.85;11.60;;;;;;;1.84;77.85;98496.13;10330626;28;20565;-57
2023/01/06 22:20:12;;;;;;;25.27;22.80;;;;;;;1.88;78.04;98503.13;10323928;28;20108;-56
2023/01/06 22:25:11;;;;;;;1.13;1.13;;;;;;;1.88;77.76;98493.78;10326766;28;20076;-57
2023/01/06 22:30:10;;;;;;;9.90;7.45;;;;;;;1.84;77.44;98493.56;10325480;28;20038;-57
2023/01/06 22:35:12;;;;;;;1.52;1.52;;;;;;;1.84;77.92;98508.94;10328600;28;20072;-57
2023/01/06 22:40:13;;;;;;;0.50;0.47;;;;;;;1.82;77.78;98513.09;10325124;28;20084;-57
2023/01/06 22:45:12;;;;;;;1.73;1.73;;;;;;;1.81;77.77;98503.66;10317000;28;20120;-57
2023/01/06 22:50:11;;;;;;;4.13;3.92;;;;;;;1.71;78.11;98500.66;10327959;28;20063;-57
2023/01/06 22:55:10;;;;;;;;;;;;;;;1.60;78.27;98500.97;10324451;28;20044;-55
2023/01/06 23:00:12;;;;;;;8.35;7.88;;;;;;;1.57;78.34;98499.16;10328232;28;19932;-56
2023/01/06 23:05:11;;;;;;;6.22;4.15;;;;;;;1.47;78.33;98509.78;10326884;28;20545;-55
2023/01/06 23:10:12;;;;;;;0.20;0.20;;;;;;;1.41;78.40;98489.94;10328665;28;20513;-57
2023/01/06 23:15:11;;;;;;;1.08;1.08;;;;;;;1.30;78.29;98480.88;10311058;28;20071;-57
2023/01/06 23:20:10;;;;;;;25.77;7.10;;;;;;;1.26;78.73;98500.28;10325246;28;20033;-57
2023/01/06 23:25:09;;;;;;;9.45;8.98;;;;;;;1.26;78.76;98479.84;10323439;28;20121;-57
2023/01/06 23:30:09;;;;;;;2.17;2.03;;;;;;;1.24;78.86;98476.31;10328715;28;20030;-57
2023/01/06 23:35:08;;;;;;;0.40;0.40;;;;;;;1.04;78.86;98448.97;10331348;28;20069;-57
2023/01/06 23:40:07;;;;;;;;;;;;;;;1.21;78.87;98477.88;10330764;28;20068;-57
2023/01/06 23:45:06;;;;;;;1.30;1.27;;;;;;;1.17;78.50;98487.06;10327650;28;19956;-57
2023/01/06 23:50:05;;;;;;;6.07;5.63;;;;;;;1.12;78.65;98485.97;10329962;28;20072;-59
2023/01/06 23:55:05;;;;;;;0.80;0.80;;;;;;;1.09;78.76;98488.41;10318965;28;20069;-57
